Terminal Aerodrome Forecast
Issued by NWS

Home | Current Version | Previous Version | Text Only | Print | Product List | Glossary On
Versions: 1 2 3 4 5 6 7 8 9 10 11 12 13 14 15
323
FTUS41 KLWX 131133
TAFMTN
TAF
KMTN 131133Z 1312/1412 30018G35KT P6SM FEW030 BKN045
     FM131300 30019G40KT P6SM SCT030 BKN045
     FM131800 30019G37KT P6SM SCT050
     FM132300 30018G28KT P6SM SCT050
     FM140600 30014G22KT P6SM FEW250=

USA.gov is the U.S. government's official web portal to all federal, state and local government web resources and services.